This is the latest recevied weather packets stored in our database for station/object KF4WSW-13. If no packets are shown the sender has not sent any weather packets the latest 10 day(s).
| Time | Temp. | Humidity | Pressure | Rain* | Wind** | Luminosity | Snow |
|---|---|---|---|---|---|---|---|
| 1777936169 | 24.44° C | 61% | 1012.1 hPa | 0 mm | - | 44 W/m² | - |
| 1777935866 | 24.44° C | 62% | 1012.1 hPa | 0 mm | - | 42 W/m² | - |
| 1777935565 | 24.44° C | 59% | 1011.9 hPa | 0 mm | - | 43 W/m² | - |
| 1777935262 | 25° C | 62% | 1012.1 hPa | 0 mm | - | 55 W/m² | - |
| 1777934959 | 24.44° C | 63% | 1011.8 hPa | 0 mm | - | 45 W/m² | - |
| 1777934655 | 25° C | 60% | 1011.9 hPa | 0 mm | - | 46 W/m² | - |
| 1777934353 | 25° C | 61% | 1012.2 hPa | 0 mm | - | 54 W/m² | - |
| 1777934048 | 25° C | 59% | 1012.1 hPa | 0 mm | - | 48 W/m² | - |
| 1777933744 | 25° C | 59% | 1012 hPa | 0 mm | - | 58 W/m² | - |
| 1777933442 | 25° C | 59% | 1012.1 hPa | 0 mm | - | 56 W/m² | - |
| 1777933140 | 25° C | 60% | 1012.2 hPa | 0 mm | - | 62 W/m² | - |
| 1777932836 | 25° C | 59% | 1012.2 hPa | 0 mm | - | 144 W/m² | - |
| 1777932534 | 25° C | 61% | 1012.2 hPa | 0 mm | - | 83 W/m² | - |
| 1777932230 | 25° C | 59% | 1012.2 hPa | 0 mm | - | 79 W/m² | - |
| 1777931927 | 25° C | 60% | 1012.3 hPa | 0 mm | - | 71 W/m² | - |
| 1777931623 | 25.56° C | 57% | 1012.2 hPa | 0 mm | - | 127 W/m² | - |
| 1777931320 | 25.56° C | 57% | 1012 hPa | 0 mm | - | 154 W/m² | - |
| 1777931017 | 25.56° C | 59% | 1012.1 hPa | 0 mm | - | 135 W/m² | - |
| 1777930713 | 25.56° C | 58% | 1012 hPa | 0 mm | - | 167 W/m² | - |
| 1777930409 | 25.56° C | 60% | 1012.1 hPa | 0 mm | - | 132 W/m² | - |
| 1777930107 | 25.56° C | 58% | 1011.9 hPa | 0 mm | - | 111 W/m² | - |
| 1777929803 | 25.56° C | 59% | 1012.1 hPa | 0 mm | - | 115 W/m² | - |
| 1777929501 | 25.56° C | 58% | 1012 hPa | 0 mm | - | 175 W/m² | - |
| 1777929197 | 25.56° C | 59% | 1012.2 hPa | 0 mm | - | 200 W/m² | - |
| 1777928894 | 25.56° C | 57% | 1012.1 hPa | 0 mm | - | 143 W/m² | - |
* Rain latest hour (hover to see other rain measurements)
** Current wind speed in m/s (hover to see current wind gust speed)